sensor_id;sensor_type;location;lat;lon;timestamp;P1;durP1;ratioP1;P2;durP2;ratioP2
24631;SDS011;59977;48.782;9.190;2022-09-01T00:02:11;18.52;;;13.88;;
24631;SDS011;59977;48.782;9.190;2022-09-01T00:04:39;20.33;;;15.35;;
24631;SDS011;59977;48.782;9.190;2022-09-01T00:07:07;20.30;;;14.32;;
24631;SDS011;59977;48.782;9.190;2022-09-01T00:09:33;22.45;;;14.85;;
24631;SDS011;59977;48.782;9.190;2022-09-01T00:12:00;20.60;;;14.82;;
24631;SDS011;59977;48.782;9.190;2022-09-01T00:14:29;20.30;;;14.50;;
24631;SDS011;59977;48.782;9.190;2022-09-01T00:16:57;20.00;;;14.38;;
24631;SDS011;59977;48.782;9.190;2022-09-01T00:19:25;16.27;;;11.98;;
24631;SDS011;59977;48.782;9.190;2022-09-01T00:21:51;16.08;;;13.25;;
24631;SDS011;59977;48.782;9.190;2022-09-01T00:24:17;19.13;;;14.90;;
24631;SDS011;59977;48.782;9.190;2022-09-01T00:26:43;18.10;;;13.57;;
24631;SDS011;59977;48.782;9.190;2022-09-01T00:29:09;22.33;;;14.20;;
24631;SDS011;59977;48.782;9.190;2022-09-01T00:31:35;19.38;;;14.38;;
24631;SDS011;59977;48.782;9.190;2022-09-01T00:34:01;18.15;;;12.50;;
24631;SDS011;59977;48.782;9.190;2022-09-01T00:36:28;20.33;;;13.98;;
24631;SDS011;59977;48.782;9.190;2022-09-01T00:38:54;20.70;;;14.30;;
24631;SDS011;59977;48.782;9.190;2022-09-01T00:41:20;21.67;;;15.30;;
24631;SDS011;59977;48.782;9.190;2022-09-01T00:43:52;23.00;;;15.80;;
24631;SDS011;59977;48.782;9.190;2022-09-01T00:51:25;22.50;;;15.13;;
24631;SDS011;59977;48.782;9.190;2022-09-01T00:53:53;23.98;;;15.02;;
24631;SDS011;59977;48.782;9.190;2022-09-01T00:56:21;20.83;;;15.10;;
24631;SDS011;59977;48.782;9.190;2022-09-01T00:58:47;23.83;;;15.77;;
24631;SDS011;59977;48.782;9.190;2022-09-01T01:01:15;24.70;;;15.88;;
24631;SDS011;59977;48.782;9.190;2022-09-01T01:03:41;23.40;;;16.77;;
24631;SDS011;59977;48.782;9.190;2022-09-01T01:06:11;25.17;;;16.20;;
24631;SDS011;59977;48.782;9.190;2022-09-01T01:08:40;26.77;;;16.38;;
24631;SDS011;59977;48.782;9.190;2022-09-01T01:11:14;26.33;;;17.35;;
24631;SDS011;59977;48.782;9.190;2022-09-01T01:16:40;22.15;;;16.67;;
24631;SDS011;59977;48.782;9.190;2022-09-01T01:19:14;23.60;;;15.93;;
24631;SDS011;59977;48.782;9.190;2022-09-01T01:22:02;26.50;;;17.20;;
24631;SDS011;59977;48.782;9.190;2022-09-01T01:24:48;24.50;;;16.50;;
24631;SDS011;59977;48.782;9.190;2022-09-01T01:27:16;26.73;;;17.20;;
24631;SDS011;59977;48.782;9.190;2022-09-01T01:29:45;24.70;;;17.67;;
24631;SDS011;59977;48.782;9.190;2022-09-01T01:32:12;23.98;;;17.55;;
24631;SDS011;59977;48.782;9.190;2022-09-01T01:34:38;28.00;;;16.77;;
24631;SDS011;59977;48.782;9.190;2022-09-01T01:37:06;26.02;;;17.50;;
24631;SDS011;59977;48.782;9.190;2022-09-01T01:39:35;23.08;;;15.57;;
24631;SDS011;59977;48.782;9.190;2022-09-01T01:42:05;23.23;;;15.82;;
24631;SDS011;59977;48.782;9.190;2022-09-01T01:44:31;27.75;;;14.57;;
24631;SDS011;59977;48.782;9.190;2022-09-01T01:46:57;21.75;;;15.00;;
24631;SDS011;59977;48.782;9.190;2022-09-01T01:49:24;23.05;;;13.68;;
24631;SDS011;59977;48.782;9.190;2022-09-01T01:51:53;26.40;;;15.23;;
24631;SDS011;59977;48.782;9.190;2022-09-01T01:54:20;21.02;;;15.68;;
24631;SDS011;59977;48.782;9.190;2022-09-01T01:56:47;21.55;;;15.18;;
24631;SDS011;59977;48.782;9.190;2022-09-01T01:59:13;19.70;;;14.25;;
24631;SDS011;59977;48.782;9.190;2022-09-01T02:01:41;21.27;;;15.27;;
24631;SDS011;59977;48.782;9.190;2022-09-01T02:04:13;25.77;;;16.80;;
24631;SDS011;59977;48.782;9.190;2022-09-01T02:06:40;22.08;;;15.10;;
24631;SDS011;59977;48.782;9.190;2022-09-01T02:09:10;22.65;;;17.67;;
24631;SDS011;59977;48.782;9.190;2022-09-01T02:11:37;26.17;;;18.90;;
24631;SDS011;59977;48.782;9.190;2022-09-01T02:14:04;26.00;;;17.25;;
24631;SDS011;59977;48.782;9.190;2022-09-01T02:16:31;26.25;;;17.98;;
24631;SDS011;59977;48.782;9.190;2022-09-01T02:18:58;24.92;;;17.98;;
24631;SDS011;59977;48.782;9.190;2022-09-01T02:21:24;24.02;;;17.60;;
24631;SDS011;59977;48.782;9.190;2022-09-01T02:24:01;22.52;;;17.40;;
24631;SDS011;59977;48.782;9.190;2022-09-01T02:26:34;20.85;;;15.85;;
24631;SDS011;59977;48.782;9.190;2022-09-01T02:29:03;22.02;;;17.15;;
24631;SDS011;59977;48.782;9.190;2022-09-01T02:31:34;27.85;;;16.40;;
24631;SDS011;59977;48.782;9.190;2022-09-01T02:34:03;25.17;;;16.17;;
24631;SDS011;59977;48.782;9.190;2022-09-01T02:36:34;22.10;;;15.75;;
24631;SDS011;59977;48.782;9.190;2022-09-01T02:39:05;22.80;;;15.50;;
24631;SDS011;59977;48.782;9.190;2022-09-01T02:41:30;22.13;;;16.10;;
24631;SDS011;59977;48.782;9.190;2022-09-01T02:43:58;20.27;;;15.27;;
24631;SDS011;59977;48.782;9.190;2022-09-01T02:46:26;20.95;;;15.32;;
24631;SDS011;59977;48.782;9.190;2022-09-01T02:48:53;24.88;;;15.32;;
24631;SDS011;59977;48.782;9.190;2022-09-01T02:51:21;22.33;;;16.10;;
24631;SDS011;59977;48.782;9.190;2022-09-01T02:53:49;20.65;;;15.48;;
24631;SDS011;59977;48.782;9.190;2022-09-01T02:56:16;20.02;;;15.43;;
24631;SDS011;59977;48.782;9.190;2022-09-01T02:58:48;21.35;;;15.90;;
24631;SDS011;59977;48.782;9.190;2022-09-01T03:01:16;22.77;;;14.80;;
24631;SDS011;59977;48.782;9.190;2022-09-01T03:03:45;22.65;;;15.15;;
24631;SDS011;59977;48.782;9.190;2022-09-01T03:06:12;20.27;;;15.63;;
24631;SDS011;59977;48.782;9.190;2022-09-01T03:08:38;21.85;;;15.82;;
24631;SDS011;59977;48.782;9.190;2022-09-01T03:11:05;23.42;;;16.23;;
24631;SDS011;59977;48.782;9.190;2022-09-01T03:13:35;19.10;;;15.70;;
24631;SDS011;59977;48.782;9.190;2022-09-01T03:16:04;21.88;;;16.33;;
24631;SDS011;59977;48.782;9.190;2022-09-01T03:18:30;24.33;;;16.58;;
24631;SDS011;59977;48.782;9.190;2022-09-01T03:20:56;26.55;;;16.25;;
24631;SDS011;59977;48.782;9.190;2022-09-01T03:23:22;27.02;;;16.30;;
24631;SDS011;59977;48.782;9.190;2022-09-01T03:25:49;21.77;;;15.63;;
24631;SDS011;59977;48.782;9.190;2022-09-01T03:28:16;21.45;;;16.67;;
24631;SDS011;59977;48.782;9.190;2022-09-01T03:30:51;25.92;;;16.27;;
24631;SDS011;59977;48.782;9.190;2022-09-01T03:33:19;22.98;;;15.85;;
24631;SDS011;59977;48.782;9.190;2022-09-01T03:35:46;27.27;;;16.83;;
24631;SDS011;59977;48.782;9.190;2022-09-01T03:38:13;28.00;;;17.58;;
24631;SDS011;59977;48.782;9.190;2022-09-01T03:40:46;27.65;;;17.50;;
24631;SDS011;59977;48.782;9.190;2022-09-01T03:43:13;22.13;;;16.77;;
24631;SDS011;59977;48.782;9.190;2022-09-01T03:45:40;23.48;;;16.92;;
24631;SDS011;59977;48.782;9.190;2022-09-01T03:48:07;22.60;;;16.10;;
24631;SDS011;59977;48.782;9.190;2022-09-01T03:50:37;27.27;;;16.65;;
24631;SDS011;59977;48.782;9.190;2022-09-01T03:53:09;26.65;;;17.27;;
24631;SDS011;59977;48.782;9.190;2022-09-01T03:55:36;24.40;;;17.45;;
24631;SDS011;59977;48.782;9.190;2022-09-01T03:58:07;22.90;;;16.90;;
24631;SDS011;59977;48.782;9.190;2022-09-01T04:00:39;27.33;;;17.27;;
24631;SDS011;59977;48.782;9.190;2022-09-01T04:03:07;25.92;;;16.85;;
24631;SDS011;59977;48.782;9.190;2022-09-01T04:05:36;25.85;;;15.93;;
24631;SDS011;59977;48.782;9.190;2022-09-01T04:08:06;23.83;;;16.27;;
24631;SDS011;59977;48.782;9.190;2022-09-01T04:10:35;19.70;;;15.23;;
24631;SDS011;59977;48.782;9.190;2022-09-01T04:13:10;22.65;;;15.55;;
24631;SDS011;59977;48.782;9.190;2022-09-01T04:15:36;22.15;;;15.63;;
24631;SDS011;59977;48.782;9.190;2022-09-01T04:18:02;21.08;;;14.82;;
24631;SDS011;59977;48.782;9.190;2022-09-01T04:20:33;24.48;;;17.65;;
24631;SDS011;59977;48.782;9.190;2022-09-01T04:23:11;26.63;;;17.65;;
24631;SDS011;59977;48.782;9.190;2022-09-01T04:25:46;24.67;;;17.80;;
24631;SDS011;59977;48.782;9.190;2022-09-01T04:28:15;28.63;;;17.42;;
24631;SDS011;59977;48.782;9.190;2022-09-01T04:30:56;29.63;;;16.98;;
24631;SDS011;59977;48.782;9.190;2022-09-01T04:33:25;28.02;;;18.23;;
24631;SDS011;59977;48.782;9.190;2022-09-01T04:35:58;27.92;;;19.52;;
24631;SDS011;59977;48.782;9.190;2022-09-01T04:38:24;25.55;;;17.77;;
24631;SDS011;59977;48.782;9.190;2022-09-01T04:40:53;28.52;;;18.10;;
24631;SDS011;59977;48.782;9.190;2022-09-01T04:43:21;31.33;;;18.10;;
24631;SDS011;59977;48.782;9.190;2022-09-01T04:45:48;22.38;;;15.98;;
24631;SDS011;59977;48.782;9.190;2022-09-01T04:48:16;19.60;;;15.40;;
24631;SDS011;59977;48.782;9.190;2022-09-01T04:50:43;25.48;;;14.57;;
24631;SDS011;59977;48.782;9.190;2022-09-01T04:53:09;27.25;;;16.65;;
24631;SDS011;59977;48.782;9.190;2022-09-01T04:55:37;24.40;;;15.07;;
24631;SDS011;59977;48.782;9.190;2022-09-01T04:58:05;19.80;;;14.30;;
24631;SDS011;59977;48.782;9.190;2022-09-01T05:00:30;18.00;;;14.00;;
24631;SDS011;59977;48.782;9.190;2022-09-01T05:03:00;28.00;;;16.15;;
24631;SDS011;59977;48.782;9.190;2022-09-01T05:05:29;23.75;;;15.20;;
24631;SDS011;59977;48.782;9.190;2022-09-01T05:08:06;19.15;;;13.85;;
24631;SDS011;59977;48.782;9.190;2022-09-01T05:10:38;23.33;;;13.13;;
24631;SDS011;59977;48.782;9.190;2022-09-01T05:13:07;21.38;;;13.85;;
24631;SDS011;59977;48.782;9.190;2022-09-01T05:15:34;24.60;;;13.77;;
24631;SDS011;59977;48.782;9.190;2022-09-01T05:18:02;20.83;;;15.45;;
24631;SDS011;59977;48.782;9.190;2022-09-01T05:20:35;27.85;;;15.60;;
24631;SDS011;59977;48.782;9.190;2022-09-01T05:23:03;24.58;;;15.68;;
24631;SDS011;59977;48.782;9.190;2022-09-01T05:25:29;22.23;;;16.23;;
24631;SDS011;59977;48.782;9.190;2022-09-01T05:27:55;21.90;;;14.60;;
24631;SDS011;59977;48.782;9.190;2022-09-01T05:30:21;23.42;;;14.40;;
24631;SDS011;59977;48.782;9.190;2022-09-01T05:32:48;21.90;;;14.25;;
24631;SDS011;59977;48.782;9.190;2022-09-01T05:35:14;20.73;;;15.07;;
24631;SDS011;59977;48.782;9.190;2022-09-01T05:37:40;26.52;;;15.98;;
24631;SDS011;59977;48.782;9.190;2022-09-01T05:40:08;22.80;;;16.10;;
24631;SDS011;59977;48.782;9.190;2022-09-01T05:42:40;22.17;;;15.50;;
24631;SDS011;59977;48.782;9.190;2022-09-01T05:45:09;23.88;;;14.82;;
24631;SDS011;59977;48.782;9.190;2022-09-01T05:47:38;25.27;;;15.77;;
24631;SDS011;59977;48.782;9.190;2022-09-01T05:50:06;23.45;;;16.20;;
24631;SDS011;59977;48.782;9.190;2022-09-01T05:52:35;22.00;;;15.38;;
24631;SDS011;59977;48.782;9.190;2022-09-01T05:55:03;26.48;;;16.77;;
24631;SDS011;59977;48.782;9.190;2022-09-01T05:57:32;22.77;;;16.15;;
24631;SDS011;59977;48.782;9.190;2022-09-01T05:59:59;24.77;;;16.52;;
24631;SDS011;59977;48.782;9.190;2022-09-01T06:02:26;22.58;;;15.75;;
24631;SDS011;59977;48.782;9.190;2022-09-01T06:04:52;23.17;;;16.23;;
24631;SDS011;59977;48.782;9.190;2022-09-01T06:07:20;27.98;;;15.93;;
24631;SDS011;59977;48.782;9.190;2022-09-01T06:09:47;22.33;;;15.73;;
24631;SDS011;59977;48.782;9.190;2022-09-01T06:12:14;26.42;;;15.18;;
24631;SDS011;59977;48.782;9.190;2022-09-01T06:14:48;21.67;;;14.70;;
24631;SDS011;59977;48.782;9.190;2022-09-01T06:17:16;24.80;;;15.27;;
24631;SDS011;59977;48.782;9.190;2022-09-01T06:19:49;25.77;;;14.68;;
24631;SDS011;59977;48.782;9.190;2022-09-01T06:22:16;30.98;;;14.82;;
24631;SDS011;59977;48.782;9.190;2022-09-01T06:24:42;22.88;;;14.85;;
24631;SDS011;59977;48.782;9.190;2022-09-01T06:27:08;21.80;;;14.88;;
24631;SDS011;59977;48.782;9.190;2022-09-01T06:29:37;24.02;;;15.70;;
24631;SDS011;59977;48.782;9.190;2022-09-01T06:32:04;20.25;;;16.50;;
24631;SDS011;59977;48.782;9.190;2022-09-01T06:34:34;22.63;;;15.57;;
24631;SDS011;59977;48.782;9.190;2022-09-01T06:37:02;22.55;;;15.43;;
24631;SDS011;59977;48.782;9.190;2022-09-01T06:39:28;21.90;;;15.57;;
24631;SDS011;59977;48.782;9.190;2022-09-01T06:41:55;25.13;;;14.70;;
24631;SDS011;59977;48.782;9.190;2022-09-01T06:44:22;21.85;;;14.95;;
24631;SDS011;59977;48.782;9.190;2022-09-01T06:46:48;23.83;;;14.63;;
24631;SDS011;59977;48.782;9.190;2022-09-01T06:49:15;21.25;;;14.90;;
24631;SDS011;59977;48.782;9.190;2022-09-01T06:51:41;24.95;;;15.15;;
24631;SDS011;59977;48.782;9.190;2022-09-01T06:54:06;26.90;;;14.77;;
24631;SDS011;59977;48.782;9.190;2022-09-01T06:56:33;22.25;;;15.15;;
24631;SDS011;59977;48.782;9.190;2022-09-01T06:58:59;19.75;;;14.52;;
24631;SDS011;59977;48.782;9.190;2022-09-01T07:01:29;20.20;;;14.25;;
24631;SDS011;59977;48.782;9.190;2022-09-01T07:03:56;23.63;;;13.75;;
24631;SDS011;59977;48.782;9.190;2022-09-01T07:06:22;17.13;;;13.70;;
24631;SDS011;59977;48.782;9.190;2022-09-01T07:08:53;17.23;;;14.30;;
24631;SDS011;59977;48.782;9.190;2022-09-01T07:11:21;19.02;;;13.88;;
24631;SDS011;59977;48.782;9.190;2022-09-01T07:13:50;19.50;;;13.35;;
24631;SDS011;59977;48.782;9.190;2022-09-01T07:16:18;21.40;;;14.48;;
24631;SDS011;59977;48.782;9.190;2022-09-01T07:18:46;16.88;;;13.27;;
24631;SDS011;59977;48.782;9.190;2022-09-01T07:21:13;22.20;;;12.57;;
24631;SDS011;59977;48.782;9.190;2022-09-01T07:23:39;22.98;;;13.25;;
24631;SDS011;59977;48.782;9.190;2022-09-01T07:26:07;19.25;;;13.95;;
24631;SDS011;59977;48.782;9.190;2022-09-01T07:28:34;20.10;;;13.55;;
24631;SDS011;59977;48.782;9.190;2022-09-01T07:30:59;16.88;;;13.27;;
24631;SDS011;59977;48.782;9.190;2022-09-01T07:33:25;17.60;;;12.80;;
24631;SDS011;59977;48.782;9.190;2022-09-01T07:35:54;22.05;;;12.85;;
24631;SDS011;59977;48.782;9.190;2022-09-01T07:38:21;15.05;;;11.68;;
24631;SDS011;59977;48.782;9.190;2022-09-01T20:19:48;28.30;;;9.27;;
24631;SDS011;59977;48.782;9.190;2022-09-01T20:25:15;9.52;;;4.38;;
24631;SDS011;59977;48.782;9.190;2022-09-01T20:28:00;4.60;;;3.45;;
24631;SDS011;59977;48.782;9.190;2022-09-01T20:30:34;7.07;;;3.63;;
24631;SDS011;59977;48.782;9.190;2022-09-01T20:33:07;4.82;;;3.15;;
24631;SDS011;59977;48.782;9.190;2022-09-01T20:38:18;7.47;;;3.67;;
24631;SDS011;59977;48.782;9.190;2022-09-01T20:41:05;7.60;;;3.30;;
24631;SDS011;59977;48.782;9.190;2022-09-01T20:43:38;6.88;;;3.30;;
24631;SDS011;59977;48.782;9.190;2022-09-01T20:46:07;8.73;;;3.58;;
24631;SDS011;59977;48.782;9.190;2022-09-01T20:48:38;7.30;;;3.63;;
24631;SDS011;59977;48.782;9.190;2022-09-01T20:51:10;9.20;;;3.70;;
24631;SDS011;59977;48.782;9.190;2022-09-01T20:56:28;6.07;;;3.97;;
24631;SDS011;59977;48.782;9.190;2022-09-01T20:59:05;6.20;;;3.67;;
24631;SDS011;59977;48.782;9.190;2022-09-01T21:01:46;6.07;;;3.42;;
24631;SDS011;59977;48.782;9.190;2022-09-01T21:04:32;9.25;;;3.80;;
24631;SDS011;59977;48.782;9.190;2022-09-01T21:07:35;12.85;;;4.07;;
24631;SDS011;59977;48.782;9.190;2022-09-01T21:12:56;7.43;;;4.15;;
24631;SDS011;59977;48.782;9.190;2022-09-01T21:16:02;5.75;;;3.90;;
24631;SDS011;59977;48.782;9.190;2022-09-01T21:18:52;6.47;;;4.38;;
24631;SDS011;59977;48.782;9.190;2022-09-01T21:24:09;9.40;;;4.93;;
24631;SDS011;59977;48.782;9.190;2022-09-01T21:26:35;7.97;;;4.07;;
24631;SDS011;59977;48.782;9.190;2022-09-01T21:29:05;6.70;;;3.90;;
24631;SDS011;59977;48.782;9.190;2022-09-01T21:31:47;10.60;;;4.63;;
24631;SDS011;59977;48.782;9.190;2022-09-01T21:34:13;6.65;;;4.10;;
24631;SDS011;59977;48.782;9.190;2022-09-01T21:36:38;7.07;;;3.67;;
24631;SDS011;59977;48.782;9.190;2022-09-01T21:39:04;5.78;;;3.50;;
24631;SDS011;59977;48.782;9.190;2022-09-01T21:41:29;7.35;;;3.70;;
24631;SDS011;59977;48.782;9.190;2022-09-01T21:43:55;6.10;;;4.05;;
24631;SDS011;59977;48.782;9.190;2022-09-01T21:46:20;7.40;;;3.70;;
24631;SDS011;59977;48.782;9.190;2022-09-01T21:48:46;7.85;;;3.97;;
24631;SDS011;59977;48.782;9.190;2022-09-01T21:51:12;7.03;;;3.95;;
24631;SDS011;59977;48.782;9.190;2022-09-01T21:53:37;11.43;;;4.50;;
24631;SDS011;59977;48.782;9.190;2022-09-01T21:56:03;8.25;;;3.90;;
24631;SDS011;59977;48.782;9.190;2022-09-01T21:58:29;8.40;;;4.10;;
24631;SDS011;59977;48.782;9.190;2022-09-01T22:00:54;8.05;;;4.88;;
24631;SDS011;59977;48.782;9.190;2022-09-01T22:03:21;6.38;;;4.10;;
24631;SDS011;59977;48.782;9.190;2022-09-01T22:05:47;8.43;;;4.13;;
24631;SDS011;59977;48.782;9.190;2022-09-01T22:08:13;6.97;;;4.00;;
24631;SDS011;59977;48.782;9.190;2022-09-01T22:10:42;9.60;;;4.20;;
24631;SDS011;59977;48.782;9.190;2022-09-01T22:13:10;5.15;;;4.07;;
24631;SDS011;59977;48.782;9.190;2022-09-01T22:15:43;10.45;;;4.45;;
24631;SDS011;59977;48.782;9.190;2022-09-01T22:18:12;9.40;;;4.15;;
24631;SDS011;59977;48.782;9.190;2022-09-01T22:20:39;5.90;;;3.88;;
24631;SDS011;59977;48.782;9.190;2022-09-01T22:23:05;6.50;;;3.88;;
24631;SDS011;59977;48.782;9.190;2022-09-01T22:25:32;9.93;;;4.20;;
24631;SDS011;59977;48.782;9.190;2022-09-01T22:28:00;6.57;;;4.20;;
24631;SDS011;59977;48.782;9.190;2022-09-01T22:30:27;11.38;;;4.30;;
24631;SDS011;59977;48.782;9.190;2022-09-01T22:32:53;8.68;;;3.80;;
24631;SDS011;59977;48.782;9.190;2022-09-01T22:35:19;5.82;;;3.78;;
24631;SDS011;59977;48.782;9.190;2022-09-01T22:37:45;6.60;;;3.85;;
